createdAt,value
2023-01-06T00:02:17.154Z,98919.63
2023-01-06T00:04:43.728Z,98925.63
2023-01-06T00:07:10.240Z,98927.16
2023-01-06T00:09:37.026Z,98912.56
2023-01-06T00:12:04.199Z,98923.69
2023-01-06T00:14:30.688Z,98916.56
2023-01-06T00:16:57.262Z,98922.69
2023-01-06T00:19:23.773Z,98921.19
2023-01-06T00:21:50.303Z,98910.59
2023-01-06T00:24:16.828Z,98911.72
2023-01-06T00:26:43.328Z,98911.72
2023-01-06T00:29:10.026Z,98901.84
2023-01-06T00:31:39.624Z,98896.97
2023-01-06T00:34:08.070Z,98903.94
2023-01-06T00:36:34.604Z,98898.50
2023-01-06T00:39:02.054Z,98897.66
2023-01-06T00:41:47.260Z,98886.25
2023-01-06T00:44:13.758Z,98887.09
2023-01-06T00:46:41.024Z,98887.22
2023-01-06T00:49:08.034Z,98879.84
2023-01-06T00:51:38.295Z,98886.97
2023-01-06T00:54:05.164Z,98880.69
2023-01-06T00:56:31.757Z,98880.13
2023-01-06T00:58:58.280Z,98883.16
2023-01-06T01:01:24.902Z,98880.69
2023-01-06T01:03:51.521Z,98879.16
2023-01-06T01:06:18.075Z,98876.81
2023-01-06T01:08:44.592Z,98881.66
2023-01-06T01:11:31.914Z,98880.84
2023-01-06T01:13:58.470Z,98878.59
2023-01-06T01:16:26.083Z,98877.78
2023-01-06T01:18:52.638Z,98876.38
2023-01-06T01:21:19.183Z,98886.81
2023-01-06T01:23:45.738Z,98882.94
2023-01-06T01:26:12.323Z,98885.56
2023-01-06T01:28:40.145Z,98886.13
2023-01-06T01:31:06.776Z,98878.44
2023-01-06T01:33:33.333Z,98878.88
2023-01-06T01:36:05.553Z,98875.13
2023-01-06T01:38:32.317Z,98869.44
2023-01-06T01:40:58.805Z,98857.06
2023-01-06T01:43:25.598Z,98869.69
2023-01-06T01:45:52.890Z,98867.44
2023-01-06T01:48:19.396Z,98859.13
2023-01-06T01:50:47.381Z,98859.38
2023-01-06T01:53:24.364Z,98861.19
2023-01-06T01:55:51.123Z,98864.97
2023-01-06T01:58:22.390Z,98863.97
2023-01-06T02:00:49.618Z,98866.06
2023-01-06T02:03:16.293Z,98869.84
2023-01-06T02:05:44.663Z,98867.88
2023-01-06T02:08:30.272Z,98854.41
2023-01-06T02:10:56.806Z,98847.84
2023-01-06T02:13:24.582Z,98862.16
2023-01-06T02:15:51.296Z,98853.84
2023-01-06T02:18:33.282Z,98854.09
2023-01-06T02:21:20.441Z,98852.31
2023-01-06T02:24:22.721Z,98845.06
2023-01-06T02:27:12.441Z,98854.09
2023-01-06T02:29:58.628Z,98840.78
2023-01-06T02:32:29.123Z,98843.84
2023-01-06T02:35:09.002Z,98840.50
2023-01-06T02:37:36.405Z,98840.91
2023-01-06T02:40:21.546Z,98842.16
2023-01-06T02:42:53.268Z,98841.03
2023-01-06T02:45:38.891Z,98837.84
2023-01-06T02:48:05.913Z,98834.78
2023-01-06T02:50:40.962Z,98841.63
2023-01-06T02:53:24.944Z,98837.16
2023-01-06T02:55:52.392Z,98834.66
2023-01-06T02:58:27.785Z,98841.19
2023-01-06T03:00:59.424Z,98834.94
2023-01-06T03:03:29.403Z,98832.72
2023-01-06T03:05:58.141Z,98829.25
2023-01-06T03:08:27.123Z,98826.03
2023-01-06T03:10:53.971Z,98832.72
2023-01-06T03:13:30.382Z,98841.03
2023-01-06T03:15:58.751Z,98840.47
2023-01-06T03:18:25.318Z,98840.09
2023-01-06T03:20:52.003Z,98829.94
2023-01-06T03:23:18.527Z,98837.56
2023-01-06T03:25:45.047Z,98830.06
2023-01-06T03:28:12.301Z,98826.19
2023-01-06T03:30:45.940Z,98822.97
2023-01-06T03:33:15.754Z,98827.00
2023-01-06T03:35:55.123Z,98816.69
2023-01-06T03:38:34.221Z,98814.63
2023-01-06T03:41:03.907Z,98818.78
2023-01-06T03:43:33.172Z,98820.63
2023-01-06T03:46:00.654Z,98820.47
2023-01-06T03:48:34.196Z,98815.75
2023-01-06T03:51:12.514Z,98819.91
2023-01-06T03:53:43.233Z,98820.06
2023-01-06T03:56:15.242Z,98814.91
2023-01-06T03:58:42.750Z,98820.28
2023-01-06T04:01:10.100Z,98821.25
2023-01-06T04:03:37.195Z,98820.13
2023-01-06T04:06:03.821Z,98814.81
2023-01-06T04:08:32.191Z,98808.28
2023-01-06T04:10:59.091Z,98815.75
2023-01-06T04:13:26.773Z,98816.25
2023-01-06T04:15:55.483Z,98817.31
2023-01-06T04:18:22.022Z,98817.72
2023-01-06T04:20:48.736Z,98817.94
2023-01-06T04:23:19.730Z,98813.03
2023-01-06T04:25:46.339Z,98808.97
2023-01-06T04:28:16.175Z,98821.78
2023-01-06T04:30:44.267Z,98814.66
2023-01-06T04:33:11.277Z,98821.94
2023-01-06T04:35:40.435Z,98824.75
2023-01-06T04:38:07.077Z,98814.22
2023-01-06T04:40:33.567Z,98804.28
2023-01-06T04:43:06.288Z,98805.09
2023-01-06T04:45:33.578Z,98819.59
2023-01-06T04:48:03.501Z,98815.22
2023-01-06T04:50:29.984Z,98809.19
2023-01-06T04:52:56.503Z,98813.94
2023-01-06T04:55:23.138Z,98815.47
2023-01-06T04:57:49.674Z,98807.84
2023-01-06T05:00:16.337Z,98809.84
2023-01-06T05:02:42.866Z,98805.69
2023-01-06T05:05:09.421Z,98798.22
2023-01-06T05:07:35.949Z,98798.09
2023-01-06T05:10:03.169Z,98790.88
2023-01-06T05:12:30.798Z,98794.25
2023-01-06T05:14:57.362Z,98796.22
2023-01-06T05:17:23.908Z,98799.84
2023-01-06T05:19:50.552Z,98795.09
2023-01-06T05:22:17.088Z,98798.06
2023-01-06T05:24:43.829Z,98793.91
2023-01-06T05:27:10.339Z,98796.53
2023-01-06T05:29:36.851Z,98785.69
2023-01-06T05:32:03.635Z,98784.34
2023-01-06T18:36:59.175Z,98888.34
2023-01-06T18:39:32.973Z,98894.56
2023-01-06T18:42:19.476Z,98880.28
2023-01-06T18:44:46.775Z,98892.78
2023-01-06T18:47:17.137Z,98885.69
2023-01-06T18:49:43.821Z,98890.00
2023-01-06T18:52:24.869Z,98890.56
2023-01-06T18:54:51.672Z,98894.16
2023-01-06T18:57:30.113Z,98882.06
2023-01-06T19:00:23.196Z,98881.38
2023-01-06T19:02:50.326Z,98880.94
2023-01-06T19:05:16.846Z,98876.94
2023-01-06T19:07:43.668Z,98888.63
2023-01-06T19:10:23.349Z,98880.56
2023-01-06T19:12:50.018Z,98878.72
2023-01-06T19:15:16.661Z,98878.59
2023-01-06T19:17:43.181Z,98878.59
2023-01-06T19:20:16.990Z,98885.56
2023-01-06T19:22:43.561Z,98892.81
2023-01-06T19:25:10.610Z,98893.06
2023-01-06T19:27:38.518Z,98890.97
2023-01-06T19:30:25.310Z,98894.72
2023-01-06T19:32:51.884Z,98896.25
2023-01-06T19:35:26.467Z,98899.31
2023-01-06T19:38:04.224Z,98897.78
2023-01-06T19:40:31.372Z,98892.91
2023-01-06T19:42:59.348Z,98891.97
2023-01-06T19:45:32.567Z,98888.88
2023-01-06T19:48:00.792Z,98889.75
2023-01-06T19:50:27.359Z,98891.69
2023-01-06T19:52:59.672Z,98888.88
2023-01-06T19:55:27.459Z,98888.88
2023-01-06T19:57:55.798Z,98885.97
2023-01-06T20:00:24.131Z,98890.28
2023-01-06T20:02:51.302Z,98891.09
2023-01-06T20:05:19.004Z,98891.94
2023-01-06T20:07:45.655Z,98895.44
2023-01-06T20:10:12.191Z,98886.81
2023-01-06T20:12:38.714Z,98885.00
2023-01-06T20:15:06.857Z,98889.56
2023-01-06T20:17:33.598Z,98888.63
2023-01-06T20:20:00.150Z,98873.59
2023-01-06T20:22:26.706Z,98877.63
2023-01-06T20:24:54.085Z,98872.91
2023-01-06T20:27:21.768Z,98875.53
2023-01-06T20:29:48.348Z,98878.59
2023-01-06T20:32:15.276Z,98878.00
2023-01-06T20:34:42.097Z,98875.94
2023-01-06T20:37:08.679Z,98872.34
2023-01-06T20:39:40.193Z,98881.66
2023-01-06T20:42:07.472Z,98881.66
2023-01-06T20:44:34.039Z,98874.16
2023-01-06T20:47:00.685Z,98878.88
2023-01-06T20:49:27.444Z,98873.56
2023-01-06T20:51:54.176Z,98874.13
2023-01-06T20:54:23.663Z,98877.75
2023-01-06T20:56:50.299Z,98872.34
2023-01-06T20:59:17.965Z,98873.72
2023-01-06T21:01:44.596Z,98864.97
2023-01-06T21:04:11.336Z,98876.38
2023-01-06T21:06:38.082Z,98870.63
2023-01-06T21:09:04.642Z,98871.63
2023-01-06T21:11:31.166Z,98870.66
2023-01-06T21:13:57.818Z,98864.81
2023-01-06T21:16:24.369Z,98864.81
2023-01-06T21:18:51.563Z,98871.66
2023-01-06T21:21:18.282Z,98863.03
2023-01-06T21:23:44.818Z,98871.25
2023-01-06T21:26:11.371Z,98865.53
2023-01-06T21:28:37.987Z,98864.56
2023-01-06T21:31:04.625Z,98868.31
2023-01-06T21:33:32.538Z,98857.03
2023-01-06T21:35:59.181Z,98856.91
2023-01-06T21:38:28.046Z,98855.66
2023-01-06T21:41:14.572Z,98851.75
2023-01-06T21:43:41.090Z,98848.25
2023-01-06T21:46:07.747Z,98854.13
2023-01-06T21:48:34.467Z,98853.13
2023-01-06T21:51:01.072Z,98860.78
2023-01-06T21:53:30.827Z,98863.41
2023-01-06T21:55:58.205Z,98860.94
2023-01-06T21:58:24.883Z,98869.00
2023-01-06T22:00:51.490Z,98861.91
2023-01-06T22:03:18.155Z,98861.75
2023-01-06T22:05:44.793Z,98866.22
2023-01-06T22:08:11.480Z,98853.28
2023-01-06T22:10:39.112Z,98851.19
2023-01-06T22:13:11.295Z,98848.28
2023-01-06T22:15:37.869Z,98848.13
2023-01-06T22:18:04.565Z,98853.56
2023-01-06T22:20:34.381Z,98850.94
2023-01-06T22:23:02.419Z,98852.97
2023-01-06T22:25:28.998Z,98842.72
2023-01-06T22:27:55.514Z,98847.31
2023-01-06T22:30:22.070Z,98842.16
2023-01-06T22:32:48.728Z,98845.50
2023-01-06T22:35:17.420Z,98846.47
2023-01-06T22:37:44.353Z,98851.47
2023-01-06T22:40:11.563Z,98852.19
2023-01-06T22:42:38.124Z,98849.41
2023-01-06T22:45:05.028Z,98850.53
2023-01-06T22:47:31.594Z,98853.56
2023-01-06T22:49:58.895Z,98847.19
2023-01-06T22:52:25.566Z,98848.41
2023-01-06T22:54:54.610Z,98845.63
2023-01-06T22:57:21.186Z,98856.06
2023-01-06T22:59:47.813Z,98850.22
2023-01-06T23:02:14.629Z,98852.44
2023-01-06T23:04:41.312Z,98852.44
2023-01-06T23:07:07.899Z,98850.78
2023-01-06T23:09:34.614Z,98848.00
2023-01-06T23:12:01.246Z,98849.53
2023-01-06T23:14:29.184Z,98849.78
2023-01-06T23:16:56.281Z,98842.84
2023-01-06T23:19:22.796Z,98847.16
2023-01-06T23:21:49.563Z,98838.97
2023-01-06T23:24:16.172Z,98843.56
2023-01-06T23:26:44.251Z,98837.28
2023-01-06T23:29:11.996Z,98839.50
2023-01-06T23:31:39.622Z,98832.28
2023-01-06T23:34:07.605Z,98838.53
2023-01-06T23:36:34.391Z,98837.97
2023-01-06T23:39:01.751Z,98841.59
2023-01-06T23:41:30.656Z,98836.31
2023-01-06T23:43:57.386Z,98839.63
2023-01-06T23:46:31.830Z,98839.38
2023-01-06T23:48:58.462Z,98839.66
2023-01-06T23:51:27.122Z,98826.72
2023-01-06T23:53:53.901Z,98827.28
2023-01-06T23:56:22.166Z,98832.44
2023-01-06T23:58:49.237Z,98829.66
